Time;durP1;ratioP1;P1;durP2;ratioP2;P2;SDS_P1;SDS_P2;PMS_P1;PMS_P2;Temp;Humidity;BMP_temperature;BMP_pressure;BME280_temperature;BME280_humidity;BME280_pressure;Samples;Min_cycle;Max_cycle;Signal;HPM_P1;HPM_P2
2023/01/30 00:00:59;;;;;;;38.15;17.15;;;;;;;-1.70;78.07;95450.47;5000218;28;20531;-78
2023/01/30 00:03:25;;;;;;;40.90;17.52;;;;;;;-1.47;77.69;95497.03;4984659;28;20510;-77
2023/01/30 00:05:50;;;;;;;38.92;17.63;;;;;;;-1.91;78.04;95426.34;4992807;28;20110;-78
2023/01/30 00:08:16;;;;;;;37.97;17.10;;;;;;;-2.14;78.32;95375.44;4995666;28;20121;-78
2023/01/30 00:10:42;;;;;;;36.80;17.08;;;;;;;-1.97;78.65;95399.28;4988841;28;20033;-78
2023/01/30 00:13:08;;;;;;;38.28;16.60;;;;;;;-1.48;78.04;95492.00;4992131;28;20405;-78
2023/01/30 00:15:34;;;;;;;36.97;17.50;;;;;;;-1.73;78.35;95463.03;5009829;28;20045;-78
2023/01/30 00:17:59;;;;;;;39.47;17.10;;;;;;;-1.52;78.63;95482.97;4984743;28;20129;-78
2023/01/30 00:20:24;;;;;;;39.67;17.83;;;;;;;-2.10;77.86;95394.81;4992213;28;20044;-78
2023/01/30 00:22:50;;;;;;;39.40;17.50;;;;;;;-1.69;78.68;95459.88;4985972;28;20105;-78
2023/01/30 00:25:15;;;;;;;41.25;17.83;;;;;;;-1.67;78.89;95477.88;4990159;28;20047;-78
2023/01/30 00:27:41;;;;;;;41.05;17.00;;;;;;;-1.57;79.40;95499.16;4990572;28;20061;-78
2023/01/30 00:30:07;;;;;;;41.95;16.17;;;;;;;-1.54;79.64;95490.19;4990740;28;20089;-78
2023/01/30 00:32:32;;;;;;;44.28;17.95;;;;;;;-1.67;79.51;95489.09;5000302;28;20033;-78
2023/01/30 00:34:58;;;;;;;42.78;17.70;;;;;;;-1.92;79.58;95451.53;5009596;28;20398;-78
2023/01/30 00:37:24;;;;;;;34.83;16.75;;;;;;;-1.72;79.37;95477.66;4992333;28;20037;-78
2023/01/30 00:39:49;;;;;;;38.13;17.02;;;;;;;-1.73;79.63;95489.84;4992315;28;20034;-78
2023/01/30 00:47:43;;;;;;;39.50;16.35;;;;;;;-2.20;79.63;95411.72;5010282;28;20415;-78
2023/01/30 00:50:09;;;;;;;40.28;18.13;;;;;;;-1.99;79.67;95461.09;5009760;28;20022;-79
2023/01/30 00:52:34;;;;;;;43.13;16.58;;;;;;;-2.19;79.54;95439.31;5009210;28;20033;-78
2023/01/30 00:55:00;;;;;;;39.42;15.93;;;;;;;-2.31;80.17;95391.47;5009676;28;20036;-78
2023/01/30 00:57:25;;;;;;;46.20;17.50;;;;;;;-2.82;80.39;95318.94;5009727;28;20092;-78
2023/01/30 00:59:50;;;;;;;39.78;17.27;;;;;;;-2.63;79.99;95339.09;5009779;28;20046;-78
2023/01/30 01:02:16;;;;;;;38.85;16.08;;;;;;;-1.80;80.09;95472.59;4992610;28;20057;-75
2023/01/30 01:04:44;;;;;;;39.90;16.20;;;;;;;-1.83;79.79;95475.59;4988643;28;20058;-75
2023/01/30 01:07:13;;;;;;;42.83;17.40;;;;;;;-2.65;80.54;95343.66;4971400;28;20078;-75
2023/01/30 01:09:38;;;;;;;40.80;16.48;;;;;;;-2.94;80.43;95313.47;4954059;28;20034;-75
2023/01/30 01:12:04;;;;;;;40.60;17.05;;;;;;;-1.83;81.12;95467.78;4971092;28;20035;-75
2023/01/30 01:14:30;;;;;;;32.55;14.55;;;;;;;-2.69;80.23;95341.63;4971446;28;20038;-75
2023/01/30 01:16:55;;;;;;;40.92;16.23;;;;;;;-2.36;80.86;95389.41;4953475;28;20109;-76
2023/01/30 01:19:21;;;;;;;40.20;16.48;;;;;;;-1.88;81.17;95463.16;4971056;28;20097;-75
2023/01/30 01:21:47;;;;;;;41.28;16.85;;;;;;;-1.77;81.07;95459.22;4970717;28;20055;-75
2023/01/30 01:24:14;;;;;;;41.40;16.70;;;;;;;-1.65;80.60;95450.69;4953413;28;20082;-75
2023/01/30 01:26:40;;;;;;;38.88;15.77;;;;;;;-2.07;80.10;95394.47;4971151;28;20478;-75
2023/01/30 01:29:09;;;;;;;33.50;13.85;;;;;;;-2.24;80.14;95379.34;4970930;28;20034;-75
2023/01/30 01:31:35;;;;;;;40.38;15.93;;;;;;;-1.82;80.19;95441.59;4964075;28;20143;-75
2023/01/30 01:34:00;;;;;;;40.00;15.90;;;;;;;-2.45;80.27;95344.63;4972433;28;20043;-75
2023/01/30 01:36:25;;;;;;;38.75;15.38;;;;;;;-2.51;80.18;95334.16;4974172;28;20038;-75
2023/01/30 01:38:51;;;;;;;41.00;16.25;;;;;;;-1.85;80.74;95447.19;4975335;28;20113;-75
2023/01/30 01:41:17;;;;;;;39.92;15.10;;;;;;;-2.24;80.65;95393.13;4972924;28;20038;-75
2023/01/30 01:44:05;;;;;;;47.40;16.38;;;;;;;-1.85;80.79;95449.78;4950765;28;20035;-75
2023/01/30 01:46:46;;;;;;;40.28;16.65;;;;;;;-1.84;80.84;95455.78;4956644;28;20045;-75
2023/01/30 01:49:34;;;;;;;33.03;13.73;;;;;;;-1.81;80.29;95450.19;4955653;28;20039;-75
2023/01/30 01:52:08;;;;;;;33.08;14.98;;;;;;;-2.03;80.12;95441.66;4970734;28;20330;-75
2023/01/30 01:54:45;;;;;;;41.55;14.73;;;;;;;-1.89;80.30;95448.53;4974365;28;20114;-75
2023/01/30 01:57:17;;;;;;;34.65;13.98;;;;;;;-2.11;80.66;95400.19;4956391;28;20042;-75
2023/01/30 01:59:53;;;;;;;37.33;14.40;;;;;;;-2.62;79.93;95322.53;4974009;28;20046;-75
2023/01/30 02:02:20;;;;;;;36.13;13.45;;;;;;;-2.02;80.56;95428.47;4956499;28;20358;-75
2023/01/30 02:05:05;;;;;;;32.78;13.75;;;;;;;-1.85;80.47;95451.56;4967458;28;20062;-75
2023/01/30 02:07:44;;;;;;;42.95;15.43;;;;;;;-2.53;80.12;95344.78;4989408;28;20417;-75
2023/01/30 02:10:14;;;;;;;37.08;14.32;;;;;;;-2.27;80.18;95371.91;4991473;28;20030;-75
2023/01/30 02:12:40;;;;;;;35.95;14.77;;;;;;;-2.34;79.86;95374.47;4993429;28;20473;-75
2023/01/30 02:15:06;;;;;;;31.13;14.10;;;;;;;-1.86;79.91;95442.97;4993765;28;20041;-76
2023/01/30 02:17:31;;;;;;;35.10;15.27;;;;;;;-2.05;80.36;95430.63;4992638;28;20034;-75
2023/01/30 02:20:08;;;;;;;35.65;14.07;;;;;;;-1.91;80.18;95447.94;4992891;28;20121;-75
2023/01/30 02:22:39;;;;;;;37.95;14.02;;;;;;;-1.85;79.88;95443.78;4992978;28;20039;-75
2023/01/30 02:25:38;;;;;;;35.65;14.15;;;;;;;-2.21;79.35;95402.34;4993359;28;20096;-75
2023/01/30 02:28:16;;;;;;;29.85;12.35;;;;;;;-2.30;79.53;95396.50;4975098;28;20042;-75
2023/01/30 02:31:15;;;;;;;32.00;13.98;;;;;;;-1.96;79.91;95438.09;4993664;28;20036;-75
2023/01/30 02:33:56;;;;;;;33.58;14.63;;;;;;;-1.95;80.54;95441.50;4992457;28;20513;-78
2023/01/30 02:36:43;;;;;;;42.15;15.27;;;;;;;-2.00;79.73;95431.69;4975834;28;20046;-75
2023/01/30 02:39:20;;;;;;;34.22;12.88;;;;;;;-1.97;79.99;95435.69;4981552;28;20054;-75
2023/01/30 02:42:10;;;;;;;35.08;14.35;;;;;;;-1.89;79.86;95435.53;4967956;28;20038;-75
2023/01/30 02:44:51;;;;;;;33.33;13.38;;;;;;;-2.41;79.56;95353.63;4981467;28;20031;-75
2023/01/30 02:47:35;;;;;;;29.98;12.75;;;;;;;-2.43;79.85;95360.00;4964336;28;20061;-76
2023/01/30 02:50:09;;;;;;;34.75;13.30;;;;;;;-2.55;79.02;95333.75;4974828;28;20037;-75
2023/01/30 02:52:35;;;;;;;37.30;13.52;;;;;;;-2.02;79.15;95417.25;4992938;28;20108;-75
2023/01/30 02:55:07;;;;;;;32.08;12.75;;;;;;;-1.92;79.32;95435.94;4975004;28;20081;-75
2023/01/30 02:57:33;;;;;;;32.55;12.77;;;;;;;-1.93;79.84;95423.13;4975099;28;20054;-75
2023/01/30 03:00:01;;;;;;;32.58;13.15;;;;;;;-2.19;79.67;95398.56;4992531;28;20038;-75
2023/01/30 03:02:35;;;;;;;27.67;13.15;;;;;;;-2.41;79.49;95369.22;4974025;28;20088;-75
2023/01/30 03:05:27;;;;;;;27.77;12.10;;;;;;;-2.79;79.89;95295.22;4967708;28;20110;-75
2023/01/30 03:07:56;;;;;;;29.67;12.00;;;;;;;-1.92;79.38;95443.75;4964714;28;20047;-75
2023/01/30 03:10:39;;;;;;;33.33;14.45;;;;;;;-1.97;79.34;95439.09;4992043;28;20112;-75
2023/01/30 03:13:11;;;;;;;33.22;13.57;;;;;;;-1.99;79.12;95430.69;4992638;28;20035;-75
2023/01/30 03:15:48;;;;;;;36.67;12.68;;;;;;;-1.94;79.44;95430.13;4992623;28;20027;-75
2023/01/30 03:18:16;;;;;;;27.63;12.45;;;;;;;-2.18;78.81;95381.97;4973994;28;20082;-75
2023/01/30 03:20:41;;;;;;;36.60;13.93;;;;;;;-2.44;79.29;95330.63;4972809;28;20544;-75
2023/01/30 03:23:07;;;;;;;32.53;13.40;;;;;;;-2.58;79.41;95318.53;4972199;28;20185;-75
2023/01/30 03:25:35;;;;;;;38.47;14.90;;;;;;;-2.31;79.87;95353.31;4958418;28;20026;-75
2023/01/30 03:28:04;;;;;;;29.70;12.77;;;;;;;-2.52;79.63;95309.22;4974653;28;20034;-75
2023/01/30 03:30:29;;;;;;;57.72;22.63;;;;;;;-1.88;79.28;95403.34;4992196;28;20045;-76
2023/01/30 03:32:54;;;;;;;32.42;13.98;;;;;;;-3.00;79.41;95228.59;4992001;28;20031;-76
2023/01/30 03:35:20;;;;;;;29.08;12.43;;;;;;;-1.88;79.51;95405.16;4974852;28;20132;-76
2023/01/30 03:37:46;;;;;;;32.28;14.48;;;;;;;-2.16;79.33;95369.59;4974414;28;20535;-76
2023/01/30 03:40:14;;;;;;;33.28;13.75;;;;;;;-1.89;79.92;95403.53;4991800;28;20452;-76
2023/01/30 03:42:40;;;;;;;29.35;13.77;;;;;;;-2.17;79.74;95351.59;4973923;28;20056;-76
2023/01/30 03:45:07;;;;;;;39.15;13.38;;;;;;;-1.84;79.65;95398.59;4991946;28;20108;-76
2023/01/30 03:47:33;;;;;;;29.92;13.70;;;;;;;-2.12;79.41;95336.22;4991786;28;20040;-75
2023/01/30 03:49:58;;;;;;;30.40;13.68;;;;;;;-1.81;78.66;95395.59;4992058;28;20034;-76
2023/01/30 03:52:23;;;;;;;33.25;13.35;;;;;;;-1.88;78.72;95397.34;4991458;28;20034;-75
2023/01/30 03:54:49;;;;;;;33.92;13.13;;;;;;;-2.29;78.91;95334.94;4974512;28;20085;-76
2023/01/30 03:57:14;;;;;;;34.67;14.85;;;;;;;-2.17;78.90;95377.59;4991955;28;20038;-76
2023/01/30 03:59:40;;;;;;;35.05;14.68;;;;;;;-2.62;78.81;95314.72;4973818;28;20038;-76
2023/01/30 04:02:05;;;;;;;34.75;15.48;;;;;;;-2.16;79.63;95379.19;4990797;28;20049;-76
2023/01/30 04:04:30;;;;;;;35.10;15.57;;;;;;;-2.18;79.55;95358.59;5000092;28;20049;-75
2023/01/30 04:06:56;;;;;;;31.58;15.15;;;;;;;-2.43;79.46;95321.84;5011546;28;20056;-76
2023/01/30 04:09:21;;;;;;;29.70;14.45;;;;;;;-3.38;79.36;95171.03;5011553;28;20038;-76
2023/01/30 04:11:47;;;;;;;37.08;17.42;;;;;;;-2.37;79.11;95317.72;4992717;28;20563;-76
2023/01/30 04:14:12;;;;;;;39.88;16.55;;;;;;;-1.94;80.20;95359.94;4985716;28;20026;-76
2023/01/30 04:16:39;;;;;;;36.53;16.55;;;;;;;-2.18;79.46;95345.59;4991656;28;20034;-76
2023/01/30 04:19:04;;;;;;;36.35;14.63;;;;;;;-1.88;78.45;95389.56;4991556;28;20034;-75
2023/01/30 04:21:30;;;;;;;30.95;13.38;;;;;;;-2.22;79.03;95344.38;4990839;28;20044;-76
2023/01/30 04:23:55;;;;;;;36.08;14.63;;;;;;;-2.17;78.99;95362.78;5003073;28;20121;-76
2023/01/30 04:26:20;;;;;;;30.73;14.23;;;;;;;-3.14;79.10;95211.34;5010862;28;20033;-76
2023/01/30 04:28:46;;;;;;;32.47;12.73;;;;;;;-2.08;79.13;95387.66;5011250;28;20408;-76
2023/01/30 04:31:12;;;;;;;30.33;12.85;;;;;;;-2.17;79.71;95360.19;5010676;28;20034;-76
2023/01/30 04:33:38;;;;;;;35.20;14.30;;;;;;;-1.95;79.71;95392.91;5009688;28;20045;-76
2023/01/30 04:36:06;;;;;;;31.63;13.40;;;;;;;-2.13;79.43;95376.19;4993214;28;20551;-76
2023/01/30 04:38:33;;;;;;;32.97;13.65;;;;;;;-2.89;79.49;95254.03;4993054;28;20033;-76
2023/01/30 04:40:59;;;;;;;33.03;14.45;;;;;;;-2.29;79.78;95350.53;4993439;28;20022;-75
2023/01/30 04:43:26;;;;;;;34.42;15.05;;;;;;;-2.42;80.15;95352.03;5010814;28;20504;-75
2023/01/30 04:45:51;;;;;;;31.73;14.13;;;;;;;-2.39;79.89;95324.88;5011321;28;20037;-75
2023/01/30 04:48:19;;;;;;;31.63;14.32;;;;;;;-2.51;79.69;95303.81;5011050;28;20030;-75
2023/01/30 04:50:47;;;;;;;36.40;13.77;;;;;;;-2.19;80.25;95349.19;4984518;28;20121;-75
2023/01/30 04:53:14;;;;;;;31.70;14.95;;;;;;;-2.29;80.26;95327.16;5001719;28;20397;-75
2023/01/30 04:55:39;;;;;;;30.40;14.05;;;;;;;-2.27;80.36;95312.16;5011176;28;20036;-75
2023/01/30 04:58:04;;;;;;;33.70;13.32;;;;;;;-2.11;80.31;95324.84;4993689;28;20033;-75
2023/01/30 05:00:30;;;;;;;36.35;14.32;;;;;;;-2.55;79.36;95244.66;4992993;28;20400;-75
2023/01/30 05:02:56;;;;;;;33.45;14.75;;;;;;;-2.26;80.34;95286.00;4992526;28;20125;-76
2023/01/30 05:05:23;;;;;;;34.53;14.90;;;;;;;-2.53;79.92;95264.28;4993042;28;20529;-75
2023/01/30 05:07:48;;;;;;;35.35;14.13;;;;;;;-1.96;79.84;95360.13;4991372;28;20066;-76
2023/01/30 05:10:14;;;;;;;34.00;14.10;;;;;;;-2.07;80.05;95359.88;4994066;28;20042;-75
2023/01/30 05:12:40;;;;;;;38.65;14.63;;;;;;;-2.29;80.54;95324.56;4994066;28;20102;-77
2023/01/30 05:15:06;;;;;;;34.30;14.38;;;;;;;-2.13;80.49;95365.81;4993095;28;20026;-76
2023/01/30 05:17:33;;;;;;;40.47;15.68;;;;;;;-2.21;81.11;95356.34;4989682;28;20056;-75
2023/01/30 05:19:58;;;;;;;38.47;16.13;;;;;;;-2.71;81.20;95276.91;4973055;28;20049;-76
2023/01/30 05:22:23;;;;;;;40.53;15.05;;;;;;;-2.16;80.54;95374.81;4986723;28;20036;-76
2023/01/30 05:24:49;;;;;;;40.60;16.80;;;;;;;-2.23;81.15;95367.94;4995061;28;20042;-76
2023/01/30 05:27:14;;;;;;;41.13;16.60;;;;;;;-2.14;81.15;95369.41;4990320;28;20034;-76
2023/01/30 05:29:40;;;;;;;50.42;17.65;;;;;;;-2.96;81.84;95241.97;4968385;28;20513;-76
2023/01/30 05:32:05;;;;;;;41.60;16.67;;;;;;;-2.18;81.55;95373.38;4966486;28;20026;-76
2023/01/30 05:34:31;;;;;;;40.08;16.27;;;;;;;-2.05;82.06;95371.66;4968638;28;20034;-77
2023/01/30 05:36:56;;;;;;;46.38;17.33;;;;;;;-2.31;81.69;95339.53;4987565;28;20026;-76
2023/01/30 05:39:22;;;;;;;42.10;17.08;;;;;;;-2.73;81.76;95299.66;4986355;28;20038;-76
2023/01/30 05:41:48;;;;;;;48.70;19.42;;;;;;;-3.09;82.09;95227.13;4972083;28;20441;-76
2023/01/30 05:44:14;;;;;;;53.13;20.00;;;;;;;-2.61;82.61;95316.34;4986967;28;20066;-78
2023/01/30 05:46:39;;;;;;;48.78;18.50;;;;;;;-2.94;81.65;95273.75;4971567;28;20085;-75
2023/01/30 05:49:06;;;;;;;48.45;20.02;;;;;;;-2.93;82.46;95289.13;4987251;28;20031;-78
2023/01/30 05:51:32;;;;;;;48.63;19.23;;;;;;;-2.90;83.05;95285.38;4976184;28;20034;-78
2023/01/30 05:53:57;;;;;;;53.03;20.58;;;;;;;-3.05;83.58;95263.88;4975122;28;20113;-78
2023/01/30 05:56:23;;;;;;;58.90;19.52;;;;;;;-2.19;83.84;95372.56;4973742;28;20125;-78
2023/01/30 05:58:50;;;;;;;53.10;20.13;;;;;;;-2.22;83.04;95361.78;4989955;28;20064;-78
2023/01/30 06:01:15;;;;;;;48.53;19.40;;;;;;;-2.60;82.29;95306.75;4986617;28;20030;-78
2023/01/30 06:03:41;;;;;;;52.22;21.35;;;;;;;-2.56;82.68;95308.78;4978424;28;20697;-78
2023/01/30 06:06:07;;;;;;;53.03;20.73;;;;;;;-2.82;82.19;95300.78;4990457;28;20046;-76
2023/01/30 06:08:33;;;;;;;56.10;21.60;;;;;;;-2.29;82.73;95358.31;4989308;28;20041;-77
2023/01/30 06:11:02;;;;;;;57.10;22.08;;;;;;;-2.13;83.28;95390.00;4989019;28;20624;-77
2023/01/30 06:13:28;;;;;;;55.05;22.77;;;;;;;-2.96;82.73;95265.34;4957553;28;20352;-78
2023/01/30 06:15:53;;;;;;;61.60;22.70;;;;;;;-2.56;83.11;95308.78;4983992;28;20038;-78
2023/01/30 06:18:19;;;;;;;58.22;22.17;;;;;;;-2.31;82.71;95329.13;4977260;28;20418;-77
2023/01/30 06:20:49;;;;;;;53.63;21.58;;;;;;;-2.42;82.50;95322.66;4964507;28;20299;-77
2023/01/30 06:23:15;;;;;;;60.63;23.85;;;;;;;-2.21;82.94;95353.00;4982740;28;20038;-77
2023/01/30 06:25:44;;;;;;;52.22;22.50;;;;;;;-2.19;82.23;95377.75;4977391;28;20109;-76
2023/01/30 06:28:09;;;;;;;56.50;22.27;;;;;;;-2.27;82.57;95371.91;4980136;28;20084;-76
2023/01/30 06:30:35;;;;;;;71.05;24.13;;;;;;;-2.58;83.00;95304.75;4984926;28;20042;-76
2023/01/30 06:33:00;;;;;;;65.78;23.25;;;;;;;-2.80;83.28;95285.84;4982859;28;20503;-78
2023/01/30 06:35:25;;;;;;;55.85;22.60;;;;;;;-2.21;83.16;95366.75;4960838;28;20072;-77
2023/01/30 06:37:51;;;;;;;58.05;22.92;;;;;;;-3.05;82.93;95230.94;4985199;28;20045;-77
2023/01/30 06:40:17;;;;;;;63.22;25.40;;;;;;;-2.27;83.30;95357.13;4979475;28;20046;-76
2023/01/30 06:42:44;;;;;;;64.95;24.67;;;;;;;-2.48;82.78;95331.22;4986365;28;20433;-78
2023/01/30 06:45:10;;;;;;;59.88;24.05;;;;;;;-2.52;82.72;95333.41;4961604;28;20604;-77
2023/01/30 06:47:53;;;;;;;60.90;23.65;;;;;;;-2.45;82.84;95362.00;4973194;28;20261;-77
2023/01/30 06:50:21;;;;;;;62.00;25.38;;;;;;;-2.77;83.08;95311.44;4980587;28;20500;-76
2023/01/30 06:52:48;;;;;;;68.00;24.85;;;;;;;-2.48;83.31;95344.19;4968463;28;20366;-77
2023/01/30 06:55:16;;;;;;;72.13;25.33;;;;;;;-2.11;83.39;95387.22;4983718;28;20042;-76
2023/01/30 06:57:42;;;;;;;68.78;26.25;;;;;;;-2.10;83.16;95392.22;4973221;28;20049;-76
2023/01/30 07:00:11;;;;;;;65.60;24.92;;;;;;;-2.67;82.34;95301.50;4983901;28;21064;-76
2023/01/30 07:02:36;;;;;;;65.32;25.88;;;;;;;-2.81;82.53;95282.44;4976956;28;20038;-79
2023/01/30 07:05:04;;;;;;;68.40;24.92;;;;;;;-2.15;82.32;95386.81;4966509;28;20065;-76
2023/01/30 07:07:30;;;;;;;62.13;25.27;;;;;;;-2.39;82.80;95362.06;4975173;28;20114;-76
2023/01/30 07:09:58;;;;;;;58.33;23.02;;;;;;;-2.04;82.98;95383.66;4979527;28;20116;-77
2023/01/30 07:12:25;;;;;;;58.20;23.08;;;;;;;-2.73;82.10;95279.69;4972130;28;20567;-77
2023/01/30 07:14:52;;;;;;;58.47;21.73;;;;;;;-2.07;81.92;95391.84;4971326;28;20038;-81
2023/01/30 07:17:18;;;;;;;55.35;22.25;;;;;;;-2.04;81.14;95391.47;4943066;28;20290;-75
2023/01/30 07:19:43;;;;;;;65.25;21.15;;;;;;;-2.74;81.81;95298.06;4971403;28;20417;-77
2023/01/30 07:22:09;;;;;;;60.28;23.15;;;;;;;-2.56;82.14;95307.97;4962704;28;20048;-76
2023/01/30 07:24:34;;;;;;;65.82;24.73;;;;;;;-2.24;81.67;95342.97;4964101;28;20030;-78
2023/01/30 07:27:00;;;;;;;69.05;23.05;;;;;;;-2.18;81.52;95345.59;4976365;28;20041;-76
2023/01/30 07:29:25;;;;;;;57.22;21.63;;;;;;;-1.99;81.19;95399.50;4982491;28;20117;-75
2023/01/30 07:31:51;;;;;;;55.75;22.83;;;;;;;-2.05;80.94;95395.03;4964471;28;20504;-76
2023/01/30 07:34:16;;;;;;;58.20;22.85;;;;;;;-1.91;81.68;95402.94;4965463;28;20045;-77
2023/01/30 07:36:42;;;;;;;56.72;21.30;;;;;;;-2.87;80.73;95272.81;4978010;28;20054;-77
2023/01/30 07:39:08;;;;;;;64.20;23.25;;;;;;;-2.36;80.88;95330.50;4981761;28;20042;-77
2023/01/30 07:41:34;;;;;;;55.53;22.60;;;;;;;-1.91;80.25;95416.75;4969068;28;20039;-76
2023/01/30 07:44:00;;;;;;;54.03;22.65;;;;;;;-2.59;81.34;95301.34;4966379;28;20076;-77
2023/01/30 07:46:26;;;;;;;62.50;22.33;;;;;;;-2.18;80.69;95350.78;4968682;28;20059;-76
2023/01/30 07:48:51;;;;;;;54.97;22.88;;;;;;;-1.71;80.50;95416.84;4965838;28;20038;-76
2023/01/30 07:51:18;;;;;;;59.40;24.48;;;;;;;-1.92;80.66;95362.34;4967367;28;20030;-77
2023/01/30 07:53:43;;;;;;;49.65;20.92;;;;;;;-1.89;79.93;95341.16;4977280;28;20018;-78
2023/01/30 07:56:13;;;;;;;54.85;21.83;;;;;;;-2.35;79.70;95274.94;4977139;28;20036;-81
2023/01/30 07:58:38;;;;;;;52.30;19.73;;;;;;;-1.95;79.28;95366.94;4976394;28;20417;-79
2023/01/30 08:01:04;;;;;;;51.70;19.25;;;;;;;-2.60;79.24;95286.81;4959098;28;20049;-79
2023/01/30 08:03:29;;;;;;;41.22;17.60;;;;;;;-2.43;79.72;95305.47;4959614;28;20041;-77
2023/01/30 08:05:54;;;;;;;41.92;18.05;;;;;;;-2.52;80.41;95286.66;4962303;28;20428;-79
2023/01/30 08:08:20;;;;;;;49.50;20.75;;;;;;;-2.60;79.94;95267.81;4954230;28;20037;-81
2023/01/30 08:10:48;;;;;;;50.03;19.67;;;;;;;-2.30;80.76;95302.97;4967193;28;20544;-78
2023/01/30 08:13:14;;;;;;;45.70;18.95;;;;;;;-1.74;80.74;95371.22;4965536;28;20030;-78
2023/01/30 08:15:39;;;;;;;53.72;19.42;;;;;;;-2.25;81.57;95286.81;4967218;28;20454;-77
2023/01/30 08:18:08;;;;;;;41.80;18.45;;;;;;;-2.15;80.33;95298.47;4986671;28;20034;-77
2023/01/30 08:20:33;;;;;;;42.92;18.42;;;;;;;-2.70;79.62;95208.44;4977405;28;20038;-80
2023/01/30 08:23:00;;;;;;;47.75;18.35;;;;;;;-2.25;79.50;95313.59;4982903;28;20048;-79
2023/01/30 08:25:26;;;;;;;44.53;18.40;;;;;;;-2.52;79.58;95268.47;4978917;28;20045;-79
2023/01/30 08:27:51;;;;;;;47.33;18.55;;;;;;;-2.13;79.22;95316.44;4982795;28;20033;-79
2023/01/30 08:30:18;;;;;;;45.05;17.70;;;;;;;-2.34;79.35;95275.75;4963678;28;20038;-80
2023/01/30 08:32:43;;;;;;;41.78;18.33;;;;;;;-1.79;79.98;95371.03;4979547;28;20037;-79
2023/01/30 08:35:09;;;;;;;48.65;19.17;;;;;;;-1.64;80.43;95363.09;4964952;28;20408;-79
2023/01/30 08:37:35;;;;;;;42.60;18.05;;;;;;;-1.62;79.24;95359.31;4960636;28;20144;-79
2023/01/30 08:40:01;;;;;;;41.72;16.85;;;;;;;-1.74;79.33;95334.84;4964511;28;20041;-79
2023/01/30 08:42:26;;;;;;;38.28;16.95;;;;;;;-1.72;78.86;95324.25;4967898;28;20382;-80
2023/01/30 08:44:51;;;;;;;48.55;18.42;;;;;;;-1.81;79.50;95310.59;4984516;28;20044;-80
2023/01/30 08:47:17;;;;;;;47.47;19.55;;;;;;;-1.68;78.75;95315.84;4967977;28;20049;-79
2023/01/30 08:49:42;;;;;;;44.05;19.00;;;;;;;-2.05;78.48;95254.72;4972887;28;20038;-79
2023/01/30 08:52:09;;;;;;;49.63;19.38;;;;;;;-1.76;78.31;95312.66;4968709;28;20645;-81
2023/01/30 08:54:34;;;;;;;45.50;19.38;;;;;;;-1.57;78.34;95333.50;4973004;28;20041;-86
2023/01/30 08:57:00;;;;;;;42.97;16.45;;;;;;;-2.53;77.95;95175.19;4943783;28;20521;-84
2023/01/30 08:59:25;;;;;;;41.35;18.38;;;;;;;-1.99;78.31;95279.16;4970617;28;20040;-81
2023/01/30 09:01:51;;;;;;;43.38;17.48;;;;;;;-1.72;77.58;95293.84;4957268;28;20166;-79
2023/01/30 09:04:16;;;;;;;50.40;18.75;;;;;;;-2.14;78.55;95235.13;4954827;28;20066;-78
2023/01/30 09:06:41;;;;;;;40.47;16.05;;;;;;;-1.63;78.08;95310.09;4962907;28;20038;-78
2023/01/30 09:09:07;;;;;;;38.22;17.75;;;;;;;-1.49;77.92;95316.13;4986536;28;20065;-80
2023/01/30 09:11:32;;;;;;;46.67;18.10;;;;;;;-1.40;78.06;95331.38;4967509;28;20037;-79
2023/01/30 09:13:57;;;;;;;45.10;17.35;;;;;;;-1.83;77.34;95285.81;4995750;28;20491;-80
2023/01/30 09:16:23;;;;;;;37.58;15.52;;;;;;;-2.06;76.91;95254.94;4986780;28;20042;-80
2023/01/30 09:18:48;;;;;;;35.55;15.80;;;;;;;-1.46;76.72;95328.75;4986170;28;20034;-80
2023/01/30 09:21:15;;;;;;;33.03;15.45;;;;;;;-1.60;76.82;95328.69;4969602;28;20041;-78
2023/01/30 09:23:41;;;;;;;32.47;14.27;;;;;;;-1.54;77.18;95326.31;4988991;28;20196;-77
2023/01/30 09:26:06;;;;;;;32.63;14.02;;;;;;;-2.12;77.79;95242.69;4985199;28;20062;-78
2023/01/30 09:28:34;;;;;;;41.10;17.02;;;;;;;-1.80;77.64;95295.81;4981816;28;20513;-77
2023/01/30 09:31:00;;;;;;;34.40;14.10;;;;;;;-1.63;77.53;95338.69;4980528;28;20437;-78
2023/01/30 09:33:26;;;;;;;37.65;15.05;;;;;;;-1.57;77.85;95330.91;4981021;28;20428;-77
2023/01/30 09:35:52;;;;;;;37.97;16.50;;;;;;;-2.15;78.14;95241.28;4968585;28;20041;-78
2023/01/30 09:38:18;;;;;;;37.15;15.57;;;;;;;-2.15;77.42;95243.91;4968116;28;20075;-79
2023/01/30 09:40:59;;;;;;;37.03;14.95;;;;;;;-1.74;77.80;95331.44;4975738;28;20496;-78
2023/01/30 09:43:27;;;;;;;35.35;14.75;;;;;;;-1.72;78.44;95317.25;4978430;28;20046;-79
2023/01/30 09:46:47;;;;;;;32.13;14.57;;;;;;;-1.89;78.02;95287.38;4977829;28;20689;-79
2023/01/30 09:49:33;;;;;;;36.00;14.82;;;;;;;-2.17;79.01;95242.47;4899651;29;20231;-78
2023/01/30 09:52:08;;;;;;;30.73;13.65;;;;;;;-1.73;78.49;95307.84;4965861;28;20029;-79
2023/01/30 09:54:38;;;;;;;34.38;14.95;;;;;;;-2.08;78.28;95249.91;4975564;28;20042;-80
2023/01/30 09:57:06;;;;;;;36.45;15.63;;;;;;;-1.63;78.46;95305.69;4983564;28;20042;-79
2023/01/30 09:59:53;;;;;;;34.45;14.75;;;;;;;-1.90;78.13;95264.97;4982515;28;20100;-78
2023/01/30 10:03:11;;;;;;;40.13;16.75;;;;;;;-1.68;78.37;95297.66;4981019;28;20095;-80
2023/01/30 10:05:47;;;;;;;44.72;17.73;;;;;;;-1.63;78.86;95291.88;4920346;28;20058;-78
2023/01/30 10:08:28;;;;;;;43.50;15.38;;;;;;;-2.41;78.47;95158.84;4942156;28;20120;-80
2023/01/30 10:11:11;;;;;;;34.83;15.95;;;;;;;-1.63;78.48;95278.88;4947075;28;20411;-79
2023/01/30 10:14:18;;;;;;;35.83;15.80;;;;;;;-1.93;78.31;95231.59;4961361;28;20389;-79
2023/01/30 10:17:03;;;;;;;34.13;14.10;;;;;;;-1.67;78.08;95275.06;4962433;28;20034;-79
2023/01/30 10:19:53;;;;;;;49.60;16.85;;;;;;;-1.70;78.66;95270.25;4952527;28;20122;-79
2023/01/30 10:22:28;;;;;;;38.05;16.08;;;;;;;-1.82;77.33;95261.41;4958580;28;20046;-79
2023/01/30 10:25:31;;;;;;;33.35;15.20;;;;;;;-1.86;77.33;95276.59;4962846;28;20042;-82
2023/01/30 10:28:04;;;;;;;39.03;16.55;;;;;;;-2.22;77.12;95211.09;4955663;28;20046;-81
2023/01/30 10:30:30;;;;;;;40.10;17.35;;;;;;;-2.49;77.30;95148.63;4961707;28;20427;-83
2023/01/30 10:33:01;;;;;;;51.17;18.55;;;;;;;-2.26;76.49;95176.09;4957574;28;20042;-82
2023/01/30 10:35:32;;;;;;;45.50;17.70;;;;;;;-1.73;76.50;95244.63;4935834;28;20038;-79
2023/01/30 10:38:20;;;;;;;40.47;17.60;;;;;;;-1.77;76.87;95226.03;4938951;28;20511;-77
2023/01/30 10:40:59;;;;;;;34.20;16.48;;;;;;;-1.81;75.34;95226.59;4960534;28;20035;-79
2023/01/30 10:43:38;;;;;;;44.38;17.00;;;;;;;-2.62;75.49;95093.25;4963842;28;20034;-81
2023/01/30 10:46:03;;;;;;;36.90;16.17;;;;;;;-1.77;76.12;95220.03;4960060;28;20093;-79
2023/01/30 10:48:58;;;;;;;43.95;15.55;;;;;;;-1.87;75.69;95223.00;4963965;28;20679;-81
2023/01/30 10:51:38;;;;;;;40.95;16.38;;;;;;;-2.39;76.24;95110.13;4937937;28;20123;-84
2023/01/30 10:54:13;;;;;;;40.70;16.30;;;;;;;-1.82;75.35;95199.00;4966215;28;20118;-85
2023/01/30 10:56:59;;;;;;;40.63;17.00;;;;;;;-1.73;75.85;95190.84;4955021;28;20045;-87
2023/01/30 10:59:35;;;;;;;49.03;18.58;;;;;;;-1.64;75.51;95188.84;4949692;28;20046;-81
2023/01/30 11:02:32;;;;;;;44.42;17.38;;;;;;;-1.64;74.62;95187.06;4961498;28;20034;-79
2023/01/30 11:05:01;;;;;;;41.75;16.45;;;;;;;-1.60;74.67;95177.84;4924376;28;20062;-80
2023/01/30 11:07:31;;;;;;;49.08;18.80;;;;;;;-1.52;74.93;95173.47;4937547;28;20179;-79
2023/01/30 11:09:58;;;;;;;40.97;16.38;;;;;;;-1.60;74.96;95161.44;4954173;28;20409;-79
2023/01/30 11:12:35;;;;;;;35.65;14.75;;;;;;;-2.50;74.52;95029.38;4967100;28;20124;-82
2023/01/30 11:15:02;;;;;;;39.58;16.30;;;;;;;-2.05;75.25;95108.38;4972551;28;20526;-79
2023/01/30 11:17:47;;;;;;;45.95;17.15;;;;;;;-2.02;74.80;95110.59;4967355;28;20041;-77
2023/01/30 11:20:23;;;;;;;43.83;16.65;;;;;;;-1.95;75.84;95103.63;4963154;28;20108;-85
2023/01/30 11:23:05;;;;;;;44.92;17.38;;;;;;;-1.56;75.40;95136.66;4967395;28;20125;-80
2023/01/30 11:25:45;;;;;;;41.67;17.77;;;;;;;-2.17;74.99;95037.22;4953445;28;20037;-79
2023/01/30 11:28:14;;;;;;;44.58;19.33;;;;;;;-1.92;75.16;95055.66;4964882;28;20076;-78
2023/01/30 11:30:40;;;;;;;56.83;18.67;;;;;;;-1.51;75.47;95103.03;4949747;28;20165;-81
2023/01/30 11:33:20;;;;;;;42.72;18.08;;;;;;;-1.80;73.68;95049.66;4967219;28;20105;-78